sensor_id;sensor_type;location;lat;lon;timestamp;pressure;altitude;pressure_sealevel;temperature;humidity
70921;BME280;58572;48.110;19.838;2024-01-11T00:01:45;99001.69;;;-3.63;62.93
70921;BME280;58572;48.110;19.838;2024-01-11T00:04:14;99013.31;;;-3.40;61.79
70921;BME280;58572;48.110;19.838;2024-01-11T00:06:42;99014.63;;;-3.60;62.97
70921;BME280;58572;48.110;19.838;2024-01-11T00:09:09;99014.13;;;-3.23;61.72
70921;BME280;58572;48.110;19.838;2024-01-11T00:11:36;99021.59;;;-3.75;62.95
70921;BME280;58572;48.110;19.838;2024-01-11T00:14:03;99013.31;;;-3.64;63.74
70921;BME280;58572;48.110;19.838;2024-01-11T00:16:30;99012.31;;;-3.39;62.53
70921;BME280;58572;48.110;19.838;2024-01-11T00:18:58;99020.28;;;-3.47;62.81
70921;BME280;58572;48.110;19.838;2024-01-11T00:21:26;99013.13;;;-3.06;62.17
70921;BME280;58572;48.110;19.838;2024-01-11T00:23:53;99025.19;;;-4.09;65.84
70921;BME280;58572;48.110;19.838;2024-01-11T00:26:20;99020.09;;;-4.36;69.51
70921;BME280;58572;48.110;19.838;2024-01-11T00:28:47;99022.19;;;-4.14;68.98
70921;BME280;58572;48.110;19.838;2024-01-11T00:31:15;99019.44;;;-4.38;70.62
70921;BME280;58572;48.110;19.838;2024-01-11T00:33:42;99013.34;;;-4.23;68.92
70921;BME280;58572;48.110;19.838;2024-01-11T00:36:09;99010.91;;;-4.08;69.34
70921;BME280;58572;48.110;19.838;2024-01-11T00:38:38;99010.63;;;-3.89;68.49
70921;BME280;58572;48.110;19.838;2024-01-11T00:41:05;98997.53;;;-3.58;66.26
70921;BME280;58572;48.110;19.838;2024-01-11T00:43:32;98994.03;;;-3.50;63.64
70921;BME280;58572;48.110;19.838;2024-01-11T00:45:59;98992.34;;;-3.18;61.64
70921;BME280;58572;48.110;19.838;2024-01-11T00:48:26;98994.59;;;-4.21;67.96
70921;BME280;58572;48.110;19.838;2024-01-11T00:50:53;98992.53;;;-3.69;66.39
70921;BME280;58572;48.110;19.838;2024-01-11T00:53:20;98983.25;;;-3.73;66.12
70921;BME280;58572;48.110;19.838;2024-01-11T00:55:48;98982.56;;;-3.42;63.31
70921;BME280;58572;48.110;19.838;2024-01-11T00:58:15;98981.72;;;-3.27;62.25
70921;BME280;58572;48.110;19.838;2024-01-11T01:00:42;98983.03;;;-2.98;61.41
70921;BME280;58572;48.110;19.838;2024-01-11T01:03:09;98983.22;;;-3.08;62.31
70921;BME280;58572;48.110;19.838;2024-01-11T01:05:36;98981.75;;;-3.75;63.02
70921;BME280;58572;48.110;19.838;2024-01-11T01:08:04;98974.09;;;-3.30;61.78
70921;BME280;58572;48.110;19.838;2024-01-11T01:10:31;98980.25;;;-3.37;62.17
70921;BME280;58572;48.110;19.838;2024-01-11T01:12:59;98972.28;;;-3.45;62.13
70921;BME280;58572;48.110;19.838;2024-01-11T01:15:26;98977.09;;;-3.81;62.73
70921;BME280;58572;48.110;19.838;2024-01-11T01:17:53;98978.50;;;-4.28;64.29
70921;BME280;58572;48.110;19.838;2024-01-11T01:20:20;98975.09;;;-4.04;64.62
70921;BME280;58572;48.110;19.838;2024-01-11T01:22:47;98967.47;;;-3.66;63.51
70921;BME280;58572;48.110;19.838;2024-01-11T01:25:14;98969.38;;;-4.17;65.12
70921;BME280;58572;48.110;19.838;2024-01-11T01:27:41;98963.16;;;-3.92;64.99
70921;BME280;58572;48.110;19.838;2024-01-11T01:30:10;98960.50;;;-3.67;62.49
70921;BME280;58572;48.110;19.838;2024-01-11T01:32:37;98952.69;;;-3.85;62.52
70921;BME280;58572;48.110;19.838;2024-01-11T01:35:04;98965.69;;;-4.40;66.03
70921;BME280;58572;48.110;19.838;2024-01-11T01:37:31;98948.88;;;-3.74;62.66
70921;BME280;58572;48.110;19.838;2024-01-11T01:39:58;98941.72;;;-3.82;63.68
70921;BME280;58572;48.110;19.838;2024-01-11T01:42:25;98943.53;;;-3.50;62.14
70921;BME280;58572;48.110;19.838;2024-01-11T01:44:52;98946.38;;;-3.60;62.19
70921;BME280;58572;48.110;19.838;2024-01-11T01:47:21;98940.53;;;-3.47;62.38
70921;BME280;58572;48.110;19.838;2024-01-11T01:49:48;98945.56;;;-3.93;63.71
70921;BME280;58572;48.110;19.838;2024-01-11T01:52:16;98949.31;;;-4.20;64.42
70921;BME280;58572;48.110;19.838;2024-01-11T01:54:44;98952.50;;;-4.66;66.01
70921;BME280;58572;48.110;19.838;2024-01-11T01:57:12;98939.16;;;-4.40;65.93
70921;BME280;58572;48.110;19.838;2024-01-11T01:59:40;98936.25;;;-3.89;63.46
70921;BME280;58572;48.110;19.838;2024-01-11T02:02:09;98936.25;;;-3.72;62.51
70921;BME280;58572;48.110;19.838;2024-01-11T02:04:38;98939.91;;;-3.81;63.50
70921;BME280;58572;48.110;19.838;2024-01-11T02:07:06;98935.03;;;-4.19;63.71
70921;BME280;58572;48.110;19.838;2024-01-11T02:09:33;98929.94;;;-3.96;63.38
70921;BME280;58572;48.110;19.838;2024-01-11T02:12:01;98924.28;;;-4.09;64.54
70921;BME280;58572;48.110;19.838;2024-01-11T02:14:30;98918.97;;;-4.09;64.00
70921;BME280;58572;48.110;19.838;2024-01-11T02:16:57;98922.28;;;-4.15;63.95
70921;BME280;58572;48.110;19.838;2024-01-11T02:19:24;98923.25;;;-4.32;65.50
70921;BME280;58572;48.110;19.838;2024-01-11T02:21:54;98916.00;;;-3.98;62.86
70921;BME280;58572;48.110;19.838;2024-01-11T02:24:23;98907.19;;;-4.06;63.48
70921;BME280;58572;48.110;19.838;2024-01-11T02:27:04;98911.53;;;-4.05;63.69
70921;BME280;58572;48.110;19.838;2024-01-11T02:29:31;98906.50;;;-4.17;64.35
70921;BME280;58572;48.110;19.838;2024-01-11T02:32:00;98900.72;;;-4.12;65.14
70921;BME280;58572;48.110;19.838;2024-01-11T02:34:28;98894.75;;;-4.06;63.25
70921;BME280;58572;48.110;19.838;2024-01-11T02:36:56;98895.34;;;-4.44;65.48
70921;BME280;58572;48.110;19.838;2024-01-11T02:39:25;98888.72;;;-4.40;65.43
70921;BME280;58572;48.110;19.838;2024-01-11T02:41:55;98876.78;;;-3.63;63.38
70921;BME280;58572;48.110;19.838;2024-01-11T02:44:22;98873.97;;;-3.62;61.58
70921;BME280;58572;48.110;19.838;2024-01-11T02:46:49;98864.78;;;-3.43;61.93
70921;BME280;58572;48.110;19.838;2024-01-11T02:49:16;98861.22;;;-3.99;63.18
70921;BME280;58572;48.110;19.838;2024-01-11T02:51:43;98861.25;;;-4.15;62.45
70921;BME280;58572;48.110;19.838;2024-01-11T02:54:10;98849.28;;;-3.87;63.18
70921;BME280;58572;48.110;19.838;2024-01-11T02:56:39;98859.56;;;-3.83;62.70
70921;BME280;58572;48.110;19.838;2024-01-11T02:59:06;98845.31;;;-4.15;63.06
70921;BME280;58572;48.110;19.838;2024-01-11T03:01:33;98848.59;;;-4.21;63.98
70921;BME280;58572;48.110;19.838;2024-01-11T03:04:00;98847.91;;;-4.47;62.81
70921;BME280;58572;48.110;19.838;2024-01-11T03:06:27;98835.31;;;-4.21;64.25
70921;BME280;58572;48.110;19.838;2024-01-11T03:08:54;98842.94;;;-4.42;64.23
70921;BME280;58572;48.110;19.838;2024-01-11T03:11:21;98832.69;;;-4.13;63.80
70921;BME280;58572;48.110;19.838;2024-01-11T03:13:49;98833.03;;;-4.08;63.25
70921;BME280;58572;48.110;19.838;2024-01-11T03:16:16;98832.16;;;-4.33;64.05
70921;BME280;58572;48.110;19.838;2024-01-11T03:18:43;98828.63;;;-4.90;65.94
70921;BME280;58572;48.110;19.838;2024-01-11T03:21:10;98834.13;;;-5.86;67.81
70921;BME280;58572;48.110;19.838;2024-01-11T03:23:37;98825.97;;;-4.82;65.67
70921;BME280;58572;48.110;19.838;2024-01-11T03:26:12;98827.50;;;-4.71;65.59
70921;BME280;58572;48.110;19.838;2024-01-11T03:28:39;98820.88;;;-4.51;65.80
70921;BME280;58572;48.110;19.838;2024-01-11T03:31:07;98818.88;;;-4.57;65.32
70921;BME280;58572;48.110;19.838;2024-01-11T03:33:35;98817.22;;;-4.58;66.06
70921;BME280;58572;48.110;19.838;2024-01-11T03:36:06;98815.06;;;-3.81;63.58
70921;BME280;58572;48.110;19.838;2024-01-11T03:38:34;98809.75;;;-4.79;65.28
70921;BME280;58572;48.110;19.838;2024-01-11T03:41:01;98812.75;;;-3.84;63.10
70921;BME280;58572;48.110;19.838;2024-01-11T03:43:29;98815.06;;;-3.81;63.15
70921;BME280;58572;48.110;19.838;2024-01-11T03:45:57;98811.38;;;-3.64;61.96
70921;BME280;58572;48.110;19.838;2024-01-11T03:48:26;98815.41;;;-4.50;65.01
70921;BME280;58572;48.110;19.838;2024-01-11T03:50:53;98812.41;;;-4.55;64.98
70921;BME280;58572;48.110;19.838;2024-01-11T03:53:20;98803.63;;;-4.31;63.76
70921;BME280;58572;48.110;19.838;2024-01-11T03:55:47;98804.59;;;-3.83;62.34
70921;BME280;58572;48.110;19.838;2024-01-11T03:58:14;98800.66;;;-4.11;63.48
70921;BME280;58572;48.110;19.838;2024-01-11T04:00:41;98817.91;;;-4.48;63.93
70921;BME280;58572;48.110;19.838;2024-01-11T04:03:08;98810.94;;;-4.49;64.64
70921;BME280;58572;48.110;19.838;2024-01-11T04:05:36;98813.88;;;-4.76;66.72
70921;BME280;58572;48.110;19.838;2024-01-11T04:08:05;98803.75;;;-4.89;65.27
70921;BME280;58572;48.110;19.838;2024-01-11T04:10:32;98809.75;;;-4.79;66.84
70921;BME280;58572;48.110;19.838;2024-01-11T04:12:59;98812.41;;;-4.63;66.63
70921;BME280;58572;48.110;19.838;2024-01-11T04:15:26;98806.41;;;-4.81;66.10
70921;BME280;58572;48.110;19.838;2024-01-11T04:17:53;98799.31;;;-4.24;64.35
70921;BME280;58572;48.110;19.838;2024-01-11T04:20:20;98798.31;;;-3.98;64.66
70921;BME280;58572;48.110;19.838;2024-01-11T04:22:48;98796.66;;;-4.48;64.78
70921;BME280;58572;48.110;19.838;2024-01-11T04:25:16;98794.50;;;-4.77;66.93
70921;BME280;58572;48.110;19.838;2024-01-11T04:27:43;98801.28;;;-4.91;68.17
70921;BME280;58572;48.110;19.838;2024-01-11T04:30:10;98793.50;;;-4.60;68.24
70921;BME280;58572;48.110;19.838;2024-01-11T04:32:37;98793.53;;;-4.11;64.98
70921;BME280;58572;48.110;19.838;2024-01-11T04:35:05;98793.50;;;-4.19;64.41
70921;BME280;58572;48.110;19.838;2024-01-11T04:37:32;98799.28;;;-4.89;65.73
70921;BME280;58572;48.110;19.838;2024-01-11T04:40:02;98794.16;;;-4.82;65.54
70921;BME280;58572;48.110;19.838;2024-01-11T04:42:30;98796.84;;;-4.33;65.46
70921;BME280;58572;48.110;19.838;2024-01-11T04:44:57;98795.50;;;-4.37;65.44
70921;BME280;58572;48.110;19.838;2024-01-11T04:47:24;98794.53;;;-4.44;65.43
70921;BME280;58572;48.110;19.838;2024-01-11T04:49:53;98801.59;;;-4.94;66.12
70921;BME280;58572;48.110;19.838;2024-01-11T04:52:20;98794.09;;;-5.06;68.52
70921;BME280;58572;48.110;19.838;2024-01-11T04:54:47;98794.50;;;-4.77;67.94
70921;BME280;58572;48.110;19.838;2024-01-11T04:57:15;98788.03;;;-4.58;67.92
70921;BME280;58572;48.110;19.838;2024-01-11T04:59:42;98774.41;;;-3.90;64.46
70921;BME280;58572;48.110;19.838;2024-01-11T05:02:09;98781.41;;;-4.38;63.63
70921;BME280;58572;48.110;19.838;2024-01-11T05:04:36;98779.59;;;-4.45;65.64
70921;BME280;58572;48.110;19.838;2024-01-11T05:07:03;98783.88;;;-4.77;67.33
70921;BME280;58572;48.110;19.838;2024-01-11T05:09:30;98787.19;;;-4.83;66.77
70921;BME280;58572;48.110;19.838;2024-01-11T05:11:58;98775.94;;;-4.36;64.32
70921;BME280;58572;48.110;19.838;2024-01-11T05:14:26;98771.28;;;-4.34;64.92
70921;BME280;58572;48.110;19.838;2024-01-11T05:16:54;98640.31;;;-5.31;63.72
70921;BME280;58572;48.110;19.838;2024-01-11T05:19:22;98774.28;;;-4.13;62.91
70921;BME280;58572;48.110;19.838;2024-01-11T05:21:49;98775.09;;;-4.21;62.96
70921;BME280;58572;48.110;19.838;2024-01-11T05:24:16;98775.69;;;-5.16;65.83
70921;BME280;58572;48.110;19.838;2024-01-11T05:26:43;98764.00;;;-4.32;64.17
70921;BME280;58572;48.110;19.838;2024-01-11T05:29:10;98769.63;;;-4.43;63.39
70921;BME280;58572;48.110;19.838;2024-01-11T05:31:38;98768.28;;;-4.96;65.82
70921;BME280;58572;48.110;19.838;2024-01-11T05:34:05;98761.34;;;-4.57;64.01
70921;BME280;58572;48.110;19.838;2024-01-11T05:36:32;98759.38;;;-4.55;63.74
70921;BME280;58572;48.110;19.838;2024-01-11T05:38:59;98653.94;;;-4.85;63.69
70921;BME280;58572;48.110;19.838;2024-01-11T05:41:26;98767.44;;;-5.05;66.11
70921;BME280;58572;48.110;19.838;2024-01-11T05:43:53;98766.97;;;-4.27;62.97
70921;BME280;58572;48.110;19.838;2024-01-11T05:46:21;98774.09;;;-4.85;65.60
70921;BME280;58572;48.110;19.838;2024-01-11T05:48:49;98762.34;;;-4.82;65.53
70921;BME280;58572;48.110;19.838;2024-01-11T05:51:16;98767.50;;;-4.48;63.50
70921;BME280;58572;48.110;19.838;2024-01-11T05:53:43;98765.53;;;-5.29;67.94
70921;BME280;58572;48.110;19.838;2024-01-11T05:56:10;98759.47;;;-5.55;69.22
70921;BME280;58572;48.110;19.838;2024-01-11T05:58:38;98756.03;;;-4.40;64.26
70921;BME280;58572;48.110;19.838;2024-01-11T06:01:05;98758.50;;;-4.88;65.77
70921;BME280;58572;48.110;19.838;2024-01-11T06:03:32;98759.69;;;-4.82;65.82
70921;BME280;58572;48.110;19.838;2024-01-11T06:06:02;98760.31;;;-5.04;65.69
70921;BME280;58572;48.110;19.838;2024-01-11T06:08:29;98762.34;;;-4.41;63.54
70921;BME280;58572;48.110;19.838;2024-01-11T06:10:57;98765.66;;;-4.80;64.82
70921;BME280;58572;48.110;19.838;2024-01-11T06:13:24;98764.16;;;-4.09;63.26
70921;BME280;58572;48.110;19.838;2024-01-11T06:15:51;98774.50;;;-5.22;65.86
70921;BME280;58572;48.110;19.838;2024-01-11T06:18:18;98764.78;;;-5.05;66.41
70921;BME280;58572;48.110;19.838;2024-01-11T06:20:45;98769.78;;;-4.86;65.12
70921;BME280;58572;48.110;19.838;2024-01-11T06:23:14;98767.53;;;-5.23;67.57
70921;BME280;58572;48.110;19.838;2024-01-11T06:25:42;98765.78;;;-5.48;68.69
70921;BME280;58572;48.110;19.838;2024-01-11T06:28:09;98770.94;;;-4.96;65.46
70921;BME280;58572;48.110;19.838;2024-01-11T06:30:36;98768.81;;;-4.11;62.38
70921;BME280;58572;48.110;19.838;2024-01-11T06:33:03;98765.66;;;-4.72;65.37
70921;BME280;58572;48.110;19.838;2024-01-11T06:35:30;98762.19;;;-4.72;66.28
70921;BME280;58572;48.110;19.838;2024-01-11T06:37:57;98761.34;;;-4.32;63.59
70921;BME280;58572;48.110;19.838;2024-01-11T06:40:26;98758.03;;;-4.67;64.84
70921;BME280;58572;48.110;19.838;2024-01-11T06:42:53;98752.38;;;-4.31;63.76
70921;BME280;58572;48.110;19.838;2024-01-11T06:45:21;98748.59;;;-4.61;63.74
70921;BME280;58572;48.110;19.838;2024-01-11T06:47:48;98738.75;;;-3.96;61.22
70921;BME280;58572;48.110;19.838;2024-01-11T06:50:15;98738.94;;;-4.05;62.57
70921;BME280;58572;48.110;19.838;2024-01-11T06:52:42;98733.84;;;-4.64;63.42
70921;BME280;58572;48.110;19.838;2024-01-11T06:55:09;98734.81;;;-4.40;63.87
70921;BME280;58572;48.110;19.838;2024-01-11T06:57:38;98724.22;;;-4.57;64.86
70921;BME280;58572;48.110;19.838;2024-01-11T07:00:06;98738.09;;;-4.22;63.70
70921;BME280;58572;48.110;19.838;2024-01-11T07:02:34;98735.00;;;-4.66;63.51
70921;BME280;58572;48.110;19.838;2024-01-11T07:05:01;98732.66;;;-4.45;65.20
70921;BME280;58572;48.110;19.838;2024-01-11T07:07:29;98729.19;;;-4.54;63.63
70921;BME280;58572;48.110;19.838;2024-01-11T07:09:56;98717.19;;;-4.17;61.92
70921;BME280;58572;48.110;19.838;2024-01-11T07:12:23;98710.91;;;-4.16;62.70
70921;BME280;58572;48.110;19.838;2024-01-11T07:14:52;98707.56;;;-4.18;62.96
70921;BME280;58572;48.110;19.838;2024-01-11T07:17:19;98706.66;;;-4.74;63.62
70921;BME280;58572;48.110;19.838;2024-01-11T07:19:46;98699.66;;;-4.42;62.97
70921;BME280;58572;48.110;19.838;2024-01-11T07:22:13;98699.00;;;-4.53;62.97
70921;BME280;58572;48.110;19.838;2024-01-11T07:24:40;98698.97;;;-4.36;64.02
70921;BME280;58572;48.110;19.838;2024-01-11T07:27:08;98709.88;;;-5.37;67.39
70921;BME280;58572;48.110;19.838;2024-01-11T07:29:35;98710.25;;;-4.42;65.77
70921;BME280;58572;48.110;19.838;2024-01-11T07:32:04;98711.56;;;-4.22;64.41
70921;BME280;58572;48.110;19.838;2024-01-11T07:34:32;98701.00;;;-4.95;65.03
70921;BME280;58572;48.110;19.838;2024-01-11T07:36:59;98715.06;;;-5.11;65.77
70921;BME280;58572;48.110;19.838;2024-01-11T07:39:26;98714.25;;;-4.38;63.71
70921;BME280;58572;48.110;19.838;2024-01-11T07:41:53;98712.88;;;-4.18;63.49
70921;BME280;58572;48.110;19.838;2024-01-11T07:44:20;98703.16;;;-4.66;64.80
70921;BME280;58572;48.110;19.838;2024-01-11T07:46:47;98684.09;;;-5.19;67.41
70921;BME280;58572;48.110;19.838;2024-01-11T07:49:15;98694.53;;;-4.68;67.74
70921;BME280;58572;48.110;19.838;2024-01-11T07:51:42;98694.53;;;-4.68;65.94
70921;BME280;58572;48.110;19.838;2024-01-11T07:54:09;98693.59;;;-5.50;70.46
70921;BME280;58572;48.110;19.838;2024-01-11T07:56:36;98694.72;;;-4.86;66.34
70921;BME280;58572;48.110;19.838;2024-01-11T07:59:03;98690.91;;;-4.67;67.12
70921;BME280;58572;48.110;19.838;2024-01-11T08:01:31;98680.41;;;-4.44;65.44
70921;BME280;58572;48.110;19.838;2024-01-11T08:04:00;98679.47;;;-4.68;67.33
70921;BME280;58572;48.110;19.838;2024-01-11T08:06:31;98676.72;;;-4.11;65.29
70921;BME280;58572;48.110;19.838;2024-01-11T08:08:58;98673.09;;;-4.34;66.41
70921;BME280;58572;48.110;19.838;2024-01-11T08:11:25;98674.81;;;-4.82;67.58
70921;BME280;58572;48.110;19.838;2024-01-11T08:13:52;98670.41;;;-4.18;65.40
70921;BME280;58572;48.110;19.838;2024-01-11T08:16:20;98671.91;;;-3.68;63.28
70921;BME280;58572;48.110;19.838;2024-01-11T08:18:48;98667.69;;;-3.94;66.39
70921;BME280;58572;48.110;19.838;2024-01-11T08:21:15;98664.13;;;-4.25;68.45
70921;BME280;58572;48.110;19.838;2024-01-11T08:23:43;98668.44;;;-4.16;66.60
70921;BME280;58572;48.110;19.838;2024-01-11T08:26:13;98657.47;;;-4.13;67.51
70921;BME280;58572;48.110;19.838;2024-01-11T08:28:40;98653.56;;;-4.50;69.01
70921;BME280;58572;48.110;19.838;2024-01-11T08:31:07;98651.13;;;-3.65;67.91
70921;BME280;58572;48.110;19.838;2024-01-11T08:33:35;98638.63;;;-3.56;68.16
70921;BME280;58572;48.110;19.838;2024-01-11T08:36:03;98629.03;;;-3.96;70.11
70921;BME280;58572;48.110;19.838;2024-01-11T08:38:30;98622.50;;;-3.32;67.86
70921;BME280;58572;48.110;19.838;2024-01-11T08:40:58;98632.91;;;-3.76;66.89
70921;BME280;58572;48.110;19.838;2024-01-11T08:43:25;98633.00;;;-3.07;66.58
70921;BME280;58572;48.110;19.838;2024-01-11T08:45:53;98644.81;;;-3.10;66.00
70921;BME280;58572;48.110;19.838;2024-01-11T08:48:20;98649.41;;;-2.81;64.70
70921;BME280;58572;48.110;19.838;2024-01-11T08:50:47;98645.63;;;-2.86;65.25
70921;BME280;58572;48.110;19.838;2024-01-11T08:53:14;98650.91;;;-2.64;66.97
70921;BME280;58572;48.110;19.838;2024-01-11T08:55:43;98644.78;;;-2.49;66.11
70921;BME280;58572;48.110;19.838;2024-01-11T08:58:11;98636.94;;;-2.80;66.57
70921;BME280;58572;48.110;19.838;2024-01-11T09:00:39;98618.91;;;-2.41;65.49
70921;BME280;58572;48.110;19.838;2024-01-11T09:03:06;98613.13;;;-2.44;66.22
70921;BME280;58572;48.110;19.838;2024-01-11T09:05:33;98604.41;;;-2.09;64.64
70921;BME280;58572;48.110;19.838;2024-01-11T09:08:00;98590.44;;;-2.11;64.82
70921;BME280;58572;48.110;19.838;2024-01-11T09:10:28;98589.72;;;-2.19;64.29
70921;BME280;58572;48.110;19.838;2024-01-11T09:12:55;98576.94;;;-1.95;64.12
70921;BME280;58572;48.110;19.838;2024-01-11T09:15:23;98573.47;;;-2.39;66.35
70921;BME280;58572;48.110;19.838;2024-01-11T09:17:53;98565.91;;;-1.55;64.38
70921;BME280;58572;48.110;19.838;2024-01-11T09:20:20;98570.41;;;-1.56;66.09
70921;BME280;58572;48.110;19.838;2024-01-11T09:22:47;98564.03;;;-1.76;64.35
70921;BME280;58572;48.110;19.838;2024-01-11T09:25:15;98575.38;;;-1.32;63.91
70921;BME280;58572;48.110;19.838;2024-01-11T09:27:42;98577.81;;;-1.51;64.76
70921;BME280;58572;48.110;19.838;2024-01-11T09:30:10;98585.31;;;-1.40;65.32
70921;BME280;58572;48.110;19.838;2024-01-11T09:32:39;98566.75;;;-0.56;63.82
70921;BME280;58572;48.110;19.838;2024-01-11T09:35:06;98572.78;;;-0.76;64.35
70921;BME280;58572;48.110;19.838;2024-01-11T09:37:34;98565.91;;;-1.34;63.74
70921;BME280;58572;48.110;19.838;2024-01-11T09:40:01;98559.84;;;-1.64;66.59
70921;BME280;58572;48.110;19.838;2024-01-11T09:42:29;98549.19;;;-1.00;64.41
70921;BME280;58572;48.110;19.838;2024-01-11T09:44:56;98536.88;;;-0.73;64.64
70921;BME280;58572;48.110;19.838;2024-01-11T09:47:24;98527.16;;;-0.81;63.99
70921;BME280;58572;48.110;19.838;2024-01-11T09:49:54;98519.56;;;-1.05;64.69
70921;BME280;58572;48.110;19.838;2024-01-11T09:52:22;98504.56;;;-0.50;63.64
70921;BME280;58572;48.110;19.838;2024-01-11T09:54:52;98505.19;;;-0.48;63.34
70921;BME280;58572;48.110;19.838;2024-01-11T09:57:24;98514.34;;;-0.23;62.68
70921;BME280;58572;48.110;19.838;2024-01-11T09:59:54;98518.09;;;-0.52;63.68
70921;BME280;58572;48.110;19.838;2024-01-11T10:02:22;98511.44;;;-0.28;63.84
70921;BME280;58572;48.110;19.838;2024-01-11T10:04:50;98500.69;;;-0.41;63.14
70921;BME280;58572;48.110;19.838;2024-01-11T10:07:19;98516.06;;;-0.02;62.40
70921;BME280;58572;48.110;19.838;2024-01-11T10:09:48;98510.63;;;-0.28;63.04
70921;BME280;58572;48.110;19.838;2024-01-11T10:12:17;98506.69;;;-1.02;63.63
70921;BME280;58572;48.110;19.838;2024-01-11T10:14:46;98492.50;;;-0.33;63.47
70921;BME280;58572;48.110;19.838;2024-01-11T10:17:13;98477.91;;;0.24;62.60
70921;BME280;58572;48.110;19.838;2024-01-11T10:19:40;98482.53;;;-0.11;63.60
70921;BME280;58572;48.110;19.838;2024-01-11T10:22:08;98489.84;;;-0.74;64.54
70921;BME280;58572;48.110;19.838;2024-01-11T10:24:39;98489.47;;;-0.65;65.15
70921;BME280;58572;48.110;19.838;2024-01-11T10:27:09;98490.06;;;-1.04;64.98
70921;BME280;58572;48.110;19.838;2024-01-11T10:29:36;98465.78;;;-0.40;63.50
70921;BME280;58572;48.110;19.838;2024-01-11T10:32:05;98458.88;;;-0.14;63.25
70921;BME280;58572;48.110;19.838;2024-01-11T10:34:33;98454.41;;;-0.01;62.27
70921;BME280;58572;48.110;19.838;2024-01-11T10:37:00;98448.56;;;-0.24;62.54
70921;BME280;58572;48.110;19.838;2024-01-11T10:39:27;98436.03;;;-0.23;63.79
70921;BME280;58572;48.110;19.838;2024-01-11T10:42:03;98442.56;;;0.35;62.02
70921;BME280;58572;48.110;19.838;2024-01-11T10:44:33;98450.38;;;0.30;61.30
70921;BME280;58572;48.110;19.838;2024-01-11T10:47:02;98453.16;;;-0.05;62.87
70921;BME280;58572;48.110;19.838;2024-01-11T10:49:30;98418.59;;;-0.13;62.22
70921;BME280;58572;48.110;19.838;2024-01-11T10:52:00;98424.97;;;-0.07;62.87
70921;BME280;58572;48.110;19.838;2024-01-11T10:54:32;98424.03;;;0.34;61.08
70921;BME280;58572;48.110;19.838;2024-01-11T10:57:02;98403.88;;;0.44;61.01
70921;BME280;58572;48.110;19.838;2024-01-11T10:59:31;98398.91;;;0.87;61.12
70921;BME280;58572;48.110;19.838;2024-01-11T11:02:04;98404.66;;;-0.02;62.88
70921;BME280;58572;48.110;19.838;2024-01-11T11:04:33;98401.94;;;-0.15;61.77
70921;BME280;58572;48.110;19.838;2024-01-11T11:07:04;98402.16;;;1.03;60.05
70921;BME280;58572;48.110;19.838;2024-01-11T11:09:34;98392.28;;;1.03;60.04
70921;BME280;58572;48.110;19.838;2024-01-11T11:12:04;98412.88;;;0.96;58.95
70921;BME280;58572;48.110;19.838;2024-01-11T11:14:34;98398.13;;;0.60;57.57
70921;BME280;58572;48.110;19.838;2024-01-11T11:17:02;98386.34;;;0.88;61.15
70921;BME280;58572;48.110;19.838;2024-01-11T11:19:30;98386.88;;;1.30;58.92
70921;BME280;58572;48.110;19.838;2024-01-11T11:21:57;98366.28;;;1.23;61.35
70921;BME280;58572;48.110;19.838;2024-01-11T11:24:24;98388.47;;;1.44;56.97
70921;BME280;58572;48.110;19.838;2024-01-11T11:26:52;98387.72;;;1.23;59.16
70921;BME280;58572;48.110;19.838;2024-01-11T11:29:24;98389.75;;;1.35;58.25
70921;BME280;58572;48.110;19.838;2024-01-11T11:31:51;98379.78;;;1.86;58.15
70921;BME280;58572;48.110;19.838;2024-01-11T11:34:19;98369.16;;;1.28;57.60
70921;BME280;58572;48.110;19.838;2024-01-11T11:36:47;98360.97;;;1.17;58.89
70921;BME280;58572;48.110;19.838;2024-01-11T11:39:14;98352.97;;;1.55;57.20
70921;BME280;58572;48.110;19.838;2024-01-11T11:41:42;98338.34;;;1.06;60.59
70921;BME280;58572;48.110;19.838;2024-01-11T11:44:12;98344.13;;;1.86;56.13
70921;BME280;58572;48.110;19.838;2024-01-11T11:46:41;98356.19;;;1.70;56.44
70921;BME280;58572;48.110;19.838;2024-01-11T11:49:09;98366.00;;;1.45;57.64
70921;BME280;58572;48.110;19.838;2024-01-11T11:51:39;98365.22;;;1.76;57.81
70921;BME280;58572;48.110;19.838;2024-01-11T11:54:08;98358.44;;;2.05;56.38
70921;BME280;58572;48.110;19.838;2024-01-11T11:56:37;98331.63;;;1.35;57.51
70921;BME280;58572;48.110;19.838;2024-01-11T11:59:06;98345.25;;;1.34;56.28
70921;BME280;58572;48.110;19.838;2024-01-11T12:01:35;98336.28;;;0.95;58.65
70921;BME280;58572;48.110;19.838;2024-01-11T12:04:04;98354.34;;;1.64;56.12
70921;BME280;58572;48.110;19.838;2024-01-11T12:06:31;98343.69;;;1.89;58.33
70921;BME280;58572;48.110;19.838;2024-01-11T12:08:59;98346.06;;;1.72;56.95
70921;BME280;58572;48.110;19.838;2024-01-11T12:11:26;98339.06;;;1.71;57.25
70921;BME280;58572;48.110;19.838;2024-01-11T12:13:54;98334.66;;;1.83;56.13
70921;BME280;58572;48.110;19.838;2024-01-11T12:16:22;98333.09;;;1.69;57.46
70921;BME280;58572;48.110;19.838;2024-01-11T12:18:49;98322.13;;;1.77;57.33
70921;BME280;58572;48.110;19.838;2024-01-11T12:21:19;98326.53;;;1.65;57.13
70921;BME280;58572;48.110;19.838;2024-01-11T12:23:46;98316.94;;;2.07;55.71
70921;BME280;58572;48.110;19.838;2024-01-11T12:26:14;98304.38;;;2.08;56.07
70921;BME280;58572;48.110;19.838;2024-01-11T12:28:41;98290.47;;;2.42;56.84
70921;BME280;58572;48.110;19.838;2024-01-11T12:31:09;98284.78;;;2.32;56.80
70921;BME280;58572;48.110;19.838;2024-01-11T12:33:39;98294.44;;;2.15;56.59
70921;BME280;58572;48.110;19.838;2024-01-11T12:36:08;98290.28;;;2.19;56.16
70921;BME280;58572;48.110;19.838;2024-01-11T12:38:37;98286.59;;;2.38;57.01
70921;BME280;58572;48.110;19.838;2024-01-11T12:41:06;98290.56;;;2.11;57.44
70921;BME280;58572;48.110;19.838;2024-01-11T12:43:36;98287.25;;;2.09;55.82
70921;BME280;58572;48.110;19.838;2024-01-11T12:46:03;98255.81;;;2.59;55.04
70921;BME280;58572;48.110;19.838;2024-01-11T12:48:30;98252.47;;;2.45;55.22
70921;BME280;58572;48.110;19.838;2024-01-11T12:50:58;98257.09;;;2.56;55.92
70921;BME280;58572;48.110;19.838;2024-01-11T12:53:25;98260.72;;;2.44;56.14
70921;BME280;58572;48.110;19.838;2024-01-11T12:56:04;98253.78;;;2.36;56.23